createdAt,value
2022-10-18T00:02:45.113Z,10.81
2022-10-18T00:05:30.659Z,10.97
2022-10-18T00:08:17.388Z,10.00
2022-10-18T00:11:03.947Z,10.79
2022-10-18T00:13:49.387Z,9.78
2022-10-18T00:16:34.712Z,9.70
2022-10-18T00:19:20.155Z,10.26
2022-10-18T00:22:05.537Z,10.26
2022-10-18T00:24:51.164Z,10.38
2022-10-18T00:27:36.527Z,10.81
2022-10-18T00:30:21.987Z,10.82
2022-10-18T00:33:07.218Z,9.58
2022-10-18T00:35:52.990Z,10.79
2022-10-18T00:38:39.218Z,10.70
2022-10-18T00:41:27.112Z,9.87
2022-10-18T00:44:12.410Z,10.68
2022-10-18T00:47:03.368Z,9.79
2022-10-18T00:49:53.670Z,10.61
2022-10-18T00:52:47.126Z,9.40
2022-10-18T00:55:34.060Z,9.59
2022-10-18T00:58:20.148Z,10.38
2022-10-18T01:01:06.122Z,9.94
2022-10-18T01:03:52.874Z,9.33
2022-10-18T01:06:50.683Z,10.67
2022-10-18T01:09:41.900Z,10.63
2022-10-18T01:12:51.866Z,10.58
2022-10-18T01:16:00.279Z,10.52
2022-10-18T01:19:02.678Z,10.19
2022-10-18T01:21:59.853Z,10.49
2022-10-18T01:24:58.120Z,10.47
2022-10-18T01:27:55.451Z,10.16
2022-10-18T01:30:45.218Z,10.14
2022-10-18T01:33:38.274Z,9.01
2022-10-18T01:36:32.715Z,10.07
2022-10-18T01:39:29.490Z,9.02
2022-10-18T01:42:20.206Z,10.26
2022-10-18T01:45:08.043Z,9.04
2022-10-18T01:47:54.915Z,10.28
2022-10-18T01:50:40.566Z,9.95
2022-10-18T01:53:29.275Z,9.95
2022-10-18T01:56:39.630Z,10.35
2022-10-18T01:59:47.100Z,10.14
2022-10-18T02:02:41.283Z,10.37
2022-10-18T02:05:33.286Z,10.36
2022-10-18T02:08:27.971Z,10.32
2022-10-18T02:11:15.908Z,9.67
2022-10-18T02:14:08.288Z,10.01
2022-10-18T02:17:00.049Z,8.84
2022-10-18T02:19:51.979Z,9.95
2022-10-18T02:22:40.922Z,8.57
2022-10-18T02:25:30.242Z,9.04
2022-10-18T02:28:15.790Z,9.09
2022-10-18T02:31:10.842Z,8.25
2022-10-18T02:34:02.661Z,9.40
2022-10-18T02:36:58.061Z,9.03
2022-10-18T02:39:47.719Z,8.23
2022-10-18T02:42:38.672Z,9.19
2022-10-18T02:45:25.122Z,7.87
2022-10-18T02:48:10.555Z,8.69
2022-10-18T02:50:55.931Z,8.71
2022-10-18T02:53:41.556Z,7.55
2022-10-18T02:56:27.264Z,9.09
2022-10-18T02:59:13.004Z,9.17
2022-10-18T03:01:58.316Z,9.05
2022-10-18T03:04:43.847Z,8.88
2022-10-18T03:07:29.284Z,8.37
2022-10-18T03:10:15.184Z,9.31
2022-10-18T03:13:00.485Z,8.97
2022-10-18T03:15:47.046Z,8.30
2022-10-18T03:18:32.459Z,9.32
2022-10-18T03:21:17.836Z,9.20
2022-10-18T03:24:03.652Z,8.02
2022-10-18T03:26:49.336Z,8.14
2022-10-18T03:29:34.459Z,8.12
2022-10-18T03:32:20.044Z,9.09
2022-10-18T03:35:06.324Z,8.13
2022-10-18T03:37:51.587Z,8.06
2022-10-18T03:40:37.041Z,8.09
2022-10-18T03:43:22.656Z,9.33
2022-10-18T03:46:07.919Z,9.32
2022-10-18T03:48:53.233Z,9.26
2022-10-18T03:51:38.432Z,8.26
2022-10-18T03:54:23.913Z,8.21
2022-10-18T03:57:09.180Z,7.97
2022-10-18T03:59:54.719Z,9.21
2022-10-18T04:02:40.136Z,9.28
2022-10-18T04:05:28.024Z,9.23
2022-10-18T04:08:13.982Z,9.17
2022-10-18T04:10:59.617Z,9.14
2022-10-18T04:13:45.084Z,8.10
2022-10-18T04:16:30.543Z,7.92
2022-10-18T04:19:16.009Z,8.22
2022-10-18T04:22:01.593Z,8.64
2022-10-18T04:24:46.866Z,8.11
2022-10-18T04:27:32.558Z,9.26
2022-10-18T04:30:18.362Z,9.01
2022-10-18T04:33:04.126Z,8.02
2022-10-18T04:35:52.661Z,8.35
2022-10-18T04:38:38.031Z,8.11
2022-10-18T04:41:23.373Z,9.20
2022-10-18T04:44:08.972Z,8.84
2022-10-18T04:46:54.208Z,8.93
2022-10-18T04:49:39.742Z,9.10
2022-10-18T04:52:25.035Z,9.14
2022-10-18T04:55:10.640Z,9.16
2022-10-18T04:57:56.087Z,8.63
2022-10-18T05:00:42.253Z,8.79
2022-10-18T05:03:27.776Z,9.13
2022-10-18T05:06:14.414Z,8.78
2022-10-18T05:08:59.749Z,9.09
2022-10-18T05:11:45.210Z,9.14
2022-10-18T05:14:30.540Z,8.99
2022-10-18T05:17:16.163Z,8.96
2022-10-18T05:20:01.687Z,8.64
2022-10-18T05:22:47.376Z,8.03
2022-10-18T05:25:32.908Z,9.24
2022-10-18T05:28:38.843Z,8.28
2022-10-18T05:31:23.867Z,9.28
2022-10-18T05:34:09.749Z,8.31
2022-10-18T05:36:57.086Z,9.49
2022-10-18T05:39:42.988Z,8.43
2022-10-18T05:42:28.699Z,9.24
2022-10-18T05:45:14.770Z,9.21
2022-10-18T05:48:00.552Z,9.67
2022-10-18T05:50:46.070Z,9.46
2022-10-18T05:53:36.732Z,9.81
2022-10-18T05:56:23.901Z,9.56
2022-10-18T05:59:12.500Z,9.29
2022-10-18T06:01:58.052Z,9.16
2022-10-18T06:04:43.475Z,10.44
2022-10-18T06:07:28.928Z,10.45
2022-10-18T06:10:14.083Z,10.89
2022-10-18T06:12:59.537Z,11.15
2022-10-18T06:15:44.741Z,10.51
2022-10-18T06:18:30.211Z,10.72
2022-10-18T06:21:21.446Z,11.89
2022-10-18T06:24:12.976Z,12.06
2022-10-18T06:27:02.121Z,12.25
2022-10-18T06:29:48.181Z,12.41
2022-10-18T06:32:33.664Z,12.43
2022-10-18T06:35:20.577Z,12.81
2022-10-18T06:38:06.499Z,12.92
2022-10-18T06:40:52.090Z,11.77
2022-10-18T06:43:37.885Z,13.22
2022-10-18T06:46:23.989Z,13.40
2022-10-18T06:49:12.073Z,12.62
2022-10-18T06:51:59.555Z,13.06
2022-10-18T06:54:45.512Z,13.81
2022-10-18T06:57:31.701Z,13.91
2022-10-18T07:00:17.439Z,13.46
2022-10-18T07:03:02.859Z,13.35
2022-10-18T07:05:49.472Z,14.11
2022-10-18T07:08:35.421Z,13.67
2022-10-18T07:11:24.468Z,14.10
2022-10-18T07:14:14.000Z,14.47
2022-10-18T07:17:02.087Z,14.58
2022-10-18T07:19:47.296Z,13.64
2022-10-18T07:22:34.328Z,13.84
2022-10-18T07:25:20.418Z,13.74
2022-10-18T07:28:06.875Z,14.69
2022-10-18T07:30:53.631Z,14.72
2022-10-18T07:33:40.319Z,14.24
2022-10-18T07:36:26.091Z,14.10
2022-10-18T07:39:12.095Z,14.79
2022-10-18T07:41:59.035Z,14.47
2022-10-18T07:44:45.063Z,14.99
2022-10-18T07:47:32.826Z,14.89
2022-10-18T07:50:20.930Z,13.96
2022-10-18T07:53:06.607Z,14.22
2022-10-18T07:55:58.370Z,15.31
2022-10-18T07:58:46.125Z,15.34
2022-10-18T08:01:31.699Z,15.38
2022-10-18T08:04:17.089Z,15.20
2022-10-18T08:07:03.145Z,15.36
2022-10-18T08:09:48.891Z,15.52
2022-10-18T08:12:34.287Z,15.04
2022-10-18T08:15:21.866Z,14.68
2022-10-18T08:18:07.333Z,15.73
2022-10-18T08:20:52.817Z,14.86
2022-10-18T08:23:39.147Z,15.67
2022-10-18T08:26:24.838Z,16.02
2022-10-18T08:29:23.016Z,15.48
2022-10-18T08:32:10.220Z,16.09
2022-10-18T08:34:55.757Z,16.37
2022-10-18T08:37:41.269Z,16.41
2022-10-18T08:40:27.851Z,16.47
2022-10-18T08:43:26.115Z,16.66
2022-10-18T08:46:12.769Z,16.78
2022-10-18T08:48:59.327Z,16.58
2022-10-18T08:51:49.241Z,16.70
2022-10-18T08:54:44.302Z,16.91
2022-10-18T08:57:31.214Z,17.18
2022-10-18T09:00:29.262Z,17.53
2022-10-18T09:03:14.964Z,17.70
2022-10-18T09:06:31.454Z,17.84
2022-10-18T09:09:41.427Z,16.99
2022-10-18T09:13:01.255Z,18.15
2022-10-18T09:15:57.139Z,17.32
2022-10-18T09:19:03.708Z,18.27
2022-10-18T09:21:54.685Z,17.57
2022-10-18T09:24:41.779Z,15.60
2022-10-18T09:28:02.097Z,18.45
2022-10-18T09:30:59.466Z,17.79
2022-10-18T09:33:53.304Z,18.88
2022-10-18T09:36:39.838Z,18.14
2022-10-18T09:39:32.583Z,18.60
2022-10-18T09:42:28.270Z,18.81
2022-10-18T09:45:32.194Z,19.15
2022-10-18T09:48:28.034Z,19.25
2022-10-18T09:51:23.479Z,18.98
2022-10-18T09:54:34.043Z,19.38
2022-10-18T09:57:31.272Z,19.44
2022-10-18T10:00:24.330Z,19.02
2022-10-18T10:03:14.742Z,18.83
2022-10-18T10:06:23.903Z,19.61
2022-10-18T10:09:17.397Z,19.00
2022-10-18T10:12:03.230Z,18.81
2022-10-18T10:14:48.680Z,19.45
2022-10-18T10:17:34.967Z,20.00
2022-10-18T10:20:24.519Z,20.01
2022-10-18T10:23:22.974Z,20.16
2022-10-18T10:26:21.014Z,20.26
2022-10-18T10:29:44.462Z,20.36
2022-10-18T10:32:42.077Z,20.40
2022-10-18T10:35:56.365Z,20.55
2022-10-18T10:38:41.945Z,19.84
2022-10-18T10:41:27.772Z,20.63
2022-10-18T10:44:23.337Z,20.50
2022-10-18T10:47:09.261Z,20.20
2022-10-18T10:49:56.656Z,20.03
2022-10-18T10:52:47.353Z,20.82
2022-10-18T10:55:35.819Z,20.15
2022-10-18T10:58:22.698Z,20.96
2022-10-18T11:01:26.625Z,20.98
2022-10-18T11:04:28.613Z,21.06
2022-10-18T11:07:17.156Z,21.09
2022-10-18T11:10:10.800Z,21.05
2022-10-18T11:13:23.612Z,21.15
2022-10-18T11:16:25.997Z,20.39
2022-10-18T11:19:41.088Z,20.27
2022-10-18T11:22:31.700Z,21.09
2022-10-18T11:25:16.972Z,21.30
2022-10-18T11:28:35.897Z,21.29
2022-10-18T11:31:35.893Z,20.67
2022-10-18T11:34:29.048Z,20.92
2022-10-18T11:37:42.215Z,21.25
2022-10-18T11:40:30.888Z,21.23
2022-10-18T11:44:01.802Z,21.23
2022-10-18T11:47:17.019Z,21.18
2022-10-18T11:50:26.130Z,21.25
2022-10-18T11:53:31.223Z,21.31
2022-10-18T11:56:32.375Z,21.26
2022-10-18T11:59:37.962Z,21.28
2022-10-18T12:02:48.480Z,21.25
2022-10-18T12:05:38.067Z,20.29
2022-10-18T12:08:31.622Z,21.05
2022-10-18T12:11:36.524Z,20.78
2022-10-18T12:14:30.190Z,21.10
2022-10-18T12:17:46.181Z,21.30
2022-10-18T12:20:49.420Z,21.30
2022-10-18T12:23:45.650Z,20.87
2022-10-18T12:26:33.219Z,21.08
2022-10-18T12:29:30.591Z,20.33
2022-10-18T12:32:30.283Z,20.36
2022-10-18T12:35:17.931Z,20.97
2022-10-18T12:38:03.291Z,21.30
2022-10-18T12:40:52.544Z,20.33
2022-10-18T12:43:38.408Z,21.20
2022-10-18T12:46:23.837Z,20.29
2022-10-18T12:49:12.709Z,21.09
2022-10-18T12:52:01.717Z,20.52
2022-10-18T12:55:18.398Z,21.38
2022-10-18T12:58:15.477Z,21.04
2022-10-18T13:01:05.997Z,21.37
2022-10-18T13:03:54.962Z,21.35
2022-10-18T13:07:43.274Z,21.41
2022-10-18T13:10:34.170Z,20.44
2022-10-18T13:13:39.820Z,21.49
2022-10-18T13:16:29.766Z,21.52
2022-10-18T13:19:30.750Z,21.54
2022-10-18T13:22:22.320Z,21.54
2022-10-18T13:25:16.973Z,21.53
2022-10-18T13:28:21.439Z,21.51
2022-10-18T13:31:19.452Z,21.50
2022-10-18T13:34:35.325Z,21.49
2022-10-18T13:37:24.602Z,20.67
2022-10-18T13:40:36.751Z,21.39
2022-10-18T13:43:51.553Z,21.35
2022-10-18T13:46:37.773Z,21.31
2022-10-18T13:49:38.567Z,20.35
2022-10-18T13:52:43.015Z,21.31
2022-10-18T13:59:15.022Z,21.30
2022-10-18T14:02:11.224Z,21.33
2022-10-18T14:05:38.785Z,21.31
2022-10-18T14:08:40.005Z,20.83
2022-10-18T14:11:46.246Z,21.28
2022-10-18T14:14:40.746Z,20.30
2022-10-18T14:17:46.334Z,21.20
2022-10-18T14:21:01.445Z,21.20
2022-10-18T14:23:52.285Z,21.18
2022-10-18T14:29:25.178Z,20.30
2022-10-18T14:32:25.259Z,21.07
2022-10-18T14:35:32.559Z,20.32
2022-10-18T14:38:22.830Z,20.13
2022-10-18T14:41:28.923Z,20.83
2022-10-18T14:44:34.652Z,20.72
2022-10-18T14:47:26.037Z,20.64
2022-10-18T14:50:32.351Z,20.38
2022-10-18T14:53:34.653Z,20.24
2022-10-18T14:56:27.864Z,20.33
2022-10-18T14:59:22.002Z,20.21
2022-10-18T15:02:27.759Z,19.07
2022-10-18T15:05:16.697Z,20.03
2022-10-18T15:08:02.851Z,19.60
2022-10-18T15:10:48.988Z,18.99
2022-10-18T15:13:37.215Z,18.71
2022-10-18T15:16:33.115Z,19.39
2022-10-18T15:19:22.240Z,19.51
2022-10-18T15:25:19.876Z,19.32
2022-10-18T15:28:29.680Z,18.32
2022-10-18T15:31:24.837Z,19.18
2022-10-18T15:34:34.621Z,19.10
2022-10-18T15:37:33.062Z,18.11
2022-10-18T15:40:36.284Z,18.82
2022-10-18T15:43:28.814Z,18.65
2022-10-18T15:46:32.286Z,17.62
2022-10-18T15:49:40.719Z,18.47
2022-10-18T15:52:38.179Z,18.39
2022-10-18T15:55:29.280Z,18.33
2022-10-18T15:58:30.066Z,18.23
2022-10-18T16:01:20.694Z,18.21
2022-10-18T16:04:13.936Z,18.13
2022-10-18T16:07:00.358Z,18.00
2022-10-18T16:09:45.745Z,17.95
2022-10-18T16:12:32.756Z,17.85
2022-10-18T16:15:20.344Z,17.25
2022-10-18T16:18:06.013Z,17.37
2022-10-18T16:20:52.195Z,17.49
2022-10-18T16:23:38.619Z,17.43
2022-10-18T16:26:26.272Z,17.33
2022-10-18T16:29:16.718Z,17.21
2022-10-18T16:32:04.540Z,17.15
2022-10-18T16:34:49.597Z,16.09
2022-10-18T16:37:35.526Z,17.02
2022-10-18T16:40:26.627Z,15.88
2022-10-18T16:43:12.171Z,16.69
2022-10-18T16:45:57.802Z,16.61
2022-10-18T16:48:44.727Z,16.22
2022-10-18T16:51:32.753Z,15.93
2022-10-18T16:54:19.243Z,16.11
2022-10-18T16:57:12.953Z,16.09
2022-10-18T16:59:58.938Z,16.02
2022-10-18T17:02:47.683Z,16.03
2022-10-18T17:05:34.900Z,16.00
2022-10-18T17:08:26.873Z,14.83
2022-10-18T17:11:23.613Z,15.85
2022-10-18T17:14:10.338Z,14.62
2022-10-18T17:16:57.512Z,15.53
2022-10-18T17:19:42.966Z,15.55
2022-10-18T17:22:28.531Z,14.54
2022-10-18T17:25:14.023Z,15.61
2022-10-18T17:27:59.433Z,14.90
2022-10-18T17:30:45.522Z,15.46
2022-10-18T17:33:31.020Z,15.43
2022-10-18T17:36:17.308Z,14.62
2022-10-18T17:39:04.028Z,13.83
2022-10-18T17:41:50.665Z,15.37
2022-10-18T17:44:36.564Z,14.96
2022-10-18T17:47:22.209Z,14.45
2022-10-18T17:50:08.381Z,15.23
2022-10-18T17:52:54.200Z,14.21
2022-10-18T17:55:40.491Z,14.45
2022-10-18T17:58:25.612Z,15.23
2022-10-18T18:01:20.735Z,14.20
2022-10-18T18:04:06.187Z,14.49
2022-10-18T18:06:53.006Z,14.64
2022-10-18T18:09:38.863Z,13.84
2022-10-18T18:12:24.625Z,13.79
2022-10-18T18:15:11.082Z,14.73
2022-10-18T18:17:57.956Z,14.24
2022-10-18T18:20:53.277Z,14.18
2022-10-18T18:23:41.816Z,13.83
2022-10-18T18:26:27.732Z,14.54
2022-10-18T18:29:14.451Z,14.57
2022-10-18T18:32:03.729Z,14.81
2022-10-18T18:34:50.044Z,14.83
2022-10-18T18:37:36.555Z,14.43
2022-10-18T18:40:23.983Z,13.63
2022-10-18T18:43:22.695Z,14.66
2022-10-18T18:46:11.239Z,14.14
2022-10-18T18:48:58.364Z,14.45
2022-10-18T18:51:44.292Z,13.79
2022-10-18T18:54:31.777Z,13.49
2022-10-18T18:57:17.758Z,13.65
2022-10-18T19:00:04.666Z,13.16
2022-10-18T19:02:51.989Z,14.22
2022-10-18T19:05:39.206Z,14.12
2022-10-18T19:08:26.504Z,14.02
2022-10-18T19:11:19.749Z,13.86
2022-10-18T19:14:09.925Z,13.82
2022-10-18T19:16:58.996Z,13.76
2022-10-18T19:19:44.655Z,13.73
2022-10-18T19:22:30.116Z,13.61
2022-10-18T19:25:15.898Z,13.52
2022-10-18T19:28:01.269Z,13.55
2022-10-18T19:30:50.080Z,13.48
2022-10-18T19:33:48.268Z,12.27
2022-10-18T19:36:36.970Z,13.32
2022-10-18T19:39:31.007Z,13.22
2022-10-18T19:42:19.217Z,13.01
2022-10-18T19:45:08.918Z,13.15
2022-10-18T19:47:54.572Z,12.24
2022-10-18T19:50:39.875Z,13.35
2022-10-18T19:53:25.892Z,13.33
2022-10-18T19:56:18.260Z,12.31
2022-10-18T19:59:05.925Z,13.17
2022-10-18T20:01:52.590Z,13.17
2022-10-18T20:04:38.627Z,13.23
2022-10-18T20:07:24.386Z,12.94
2022-10-18T20:10:10.598Z,13.52
2022-10-18T20:12:56.224Z,13.65
2022-10-18T20:15:41.957Z,13.70
2022-10-18T20:18:27.745Z,13.96
2022-10-18T20:21:16.461Z,12.90
2022-10-18T20:24:05.804Z,14.12
2022-10-18T20:29:45.777Z,14.22
2022-10-18T20:32:32.950Z,13.20
2022-10-18T20:35:18.029Z,14.19
2022-10-18T20:38:03.580Z,14.41
2022-10-18T20:40:48.838Z,14.01
2022-10-18T20:43:34.627Z,14.49
2022-10-18T20:46:20.902Z,14.06
2022-10-18T20:49:08.414Z,14.60
2022-10-18T20:51:53.930Z,14.61
2022-10-18T20:54:39.453Z,14.72
2022-10-18T20:57:24.553Z,14.69
2022-10-18T21:00:11.726Z,14.78
2022-10-18T21:02:58.502Z,13.67
2022-10-18T21:05:44.063Z,13.88
2022-10-18T21:08:29.456Z,14.66
2022-10-18T21:11:14.845Z,14.24
2022-10-18T21:14:02.747Z,14.25
2022-10-18T21:16:49.859Z,14.23
2022-10-18T21:19:35.270Z,14.61
2022-10-18T21:22:20.888Z,14.04
2022-10-18T21:25:08.089Z,13.70
2022-10-18T21:27:53.495Z,13.44
2022-10-18T21:30:39.158Z,14.40
2022-10-18T21:33:24.936Z,14.35
2022-10-18T21:36:10.766Z,13.10
2022-10-18T21:38:56.410Z,13.30
2022-10-18T21:41:42.925Z,13.13
2022-10-18T21:44:28.297Z,13.01
2022-10-18T21:47:15.348Z,12.89
2022-10-18T21:50:00.576Z,13.90
2022-10-18T21:52:46.221Z,13.54
2022-10-18T21:55:31.480Z,13.36
2022-10-18T21:58:17.092Z,13.43
2022-10-18T22:01:09.399Z,12.25
2022-10-18T22:03:56.991Z,12.42
2022-10-18T22:06:42.315Z,12.79
2022-10-18T22:09:27.988Z,12.30
2022-10-18T22:12:13.281Z,12.25
2022-10-18T22:14:58.615Z,13.48
2022-10-18T22:17:44.121Z,13.49
2022-10-18T22:20:29.387Z,12.49
2022-10-18T22:23:14.901Z,12.49
2022-10-18T22:26:05.527Z,12.60
2022-10-18T22:28:59.950Z,12.35
2022-10-18T22:31:50.921Z,13.43
2022-10-18T22:34:36.822Z,13.00
2022-10-18T22:37:22.347Z,13.42
2022-10-18T22:40:10.863Z,12.21
2022-10-18T22:42:56.328Z,13.35
2022-10-18T22:45:41.940Z,13.09
2022-10-18T22:48:27.894Z,11.89
2022-10-18T22:51:13.818Z,13.29
2022-10-18T22:53:59.469Z,13.20
2022-10-18T22:56:44.773Z,13.26
2022-10-18T22:59:30.184Z,13.02
2022-10-18T23:02:15.740Z,13.08
2022-10-18T23:05:00.960Z,12.46
2022-10-18T23:07:50.171Z,12.84
2022-10-18T23:10:40.753Z,12.98
2022-10-18T23:13:27.868Z,13.47
2022-10-18T23:16:13.417Z,12.53
2022-10-18T23:18:59.743Z,13.27
2022-10-18T23:21:45.372Z,12.42
2022-10-18T23:24:30.867Z,13.29
2022-10-18T23:27:16.153Z,13.14
2022-10-18T23:30:01.356Z,13.93
2022-10-18T23:32:46.662Z,13.30
2022-10-18T23:35:32.034Z,14.39
2022-10-18T23:38:18.041Z,13.49
2022-10-18T23:41:05.515Z,14.68
2022-10-18T23:43:51.511Z,14.80
2022-10-18T23:46:37.226Z,14.20
2022-10-18T23:49:22.743Z,13.88
2022-10-18T23:52:08.446Z,14.42
2022-10-18T23:54:54.131Z,15.02
2022-10-18T23:57:39.306Z,15.01
